Time;durP1;ratioP1;P1;durP2;ratioP2;P2;SDS_P1;SDS_P2;PMS_P1;PMS_P2;Temp;Humidity;BMP_temperature;BMP_pressure;BME280_temperature;BME280_humidity;BME280_pressure;Samples;Min_cycle;Max_cycle;Signal;HPM_P1;HPM_P2
2021/05/31 00:00:16;;;;;;;1.57;1.10;;;12.90;90.30;;;;;;5048675;28;20936;-73
2021/05/31 00:02:43;;;;;;;1.83;1.13;;;12.60;90.80;;;;;;5052236;28;20613;-72
2021/05/31 00:05:10;;;;;;;1.20;1.10;;;12.60;91.30;;;;;;5049752;28;20558;-71
2021/05/31 00:07:37;;;;;;;1.50;1.20;;;12.40;91.80;;;;;;5052163;28;20536;-72
2021/05/31 00:10:05;;;;;;;1.30;1.10;;;12.30;92.10;;;;;;5048991;28;20892;-72
2021/05/31 00:12:33;;;;;;;1.70;1.37;;;12.10;92.40;;;;;;5052020;28;20460;-71
2021/05/31 00:14:59;;;;;;;1.20;1.00;;;12.00;92.80;;;;;;5049663;28;20451;-72
2021/05/31 00:17:26;;;;;;;1.33;1.10;;;11.50;94.60;;;;;;5052365;28;20460;-72
2021/05/31 00:19:54;;;;;;;1.30;1.10;;;11.50;94.10;;;;;;5049355;28;20919;-72
2021/05/31 00:22:23;;;;;;;1.20;1.10;;;11.60;93.80;;;;;;5051975;28;20488;-74
2021/05/31 00:24:50;;;;;;;1.77;1.43;;;11.50;94.10;;;;;;5049507;28;20483;-72
2021/05/31 00:27:18;;;;;;;1.73;1.43;;;11.30;95.10;;;;;;5052101;28;20460;-72
2021/05/31 00:29:45;;;;;;;1.20;1.00;;;11.10;95.50;;;;;;5049302;28;20477;-72
2021/05/31 00:32:12;;;;;;;1.20;1.00;;;11.10;95.50;;;;;;5051928;28;20481;-72
2021/05/31 00:34:39;;;;;;;1.40;1.40;;;11.10;95.20;;;;;;5049250;28;20459;-73
2021/05/31 00:37:06;;;;;;;1.20;1.00;;;11.00;96.00;;;;;;5051689;28;20482;-72
2021/05/31 00:39:33;;;;;;;1.20;1.20;;;10.90;96.70;;;;;;5051299;28;20527;-72
2021/05/31 00:42:00;;;;;;;2.73;1.30;;;10.70;97.10;;;;;;5049847;28;20446;-72
2021/05/31 00:44:27;;;;;;;1.20;1.10;;;10.60;97.80;;;;;;5050824;28;20552;-73
2021/05/31 00:46:54;;;;;;;1.20;1.00;;;10.30;98.00;;;;;;5047907;28;20770;-72
2021/05/31 00:49:23;;;;;;;1.20;1.00;;;10.10;98.00;;;;;;5050791;28;20565;-73
2021/05/31 00:51:50;;;;;;;1.67;1.30;;;10.10;98.00;;;;;;5048857;28;20954;-73
2021/05/31 00:54:17;;;;;;;1.40;1.10;;;10.20;98.00;;;;;;5051933;28;20461;-73
2021/05/31 00:56:45;;;;;;;1.20;1.00;;;10.30;98.00;;;;;;5048966;28;20488;-73
2021/05/31 00:59:12;;;;;;;1.30;1.10;;;10.40;98.00;;;;;;5051588;28;20941;-72
2021/05/31 01:01:38;;;;;;;2.13;1.60;;;10.20;98.00;;;;;;5049562;28;20521;-72
2021/05/31 01:04:06;;;;;;;1.47;1.20;;;10.20;98.00;;;;;;5051269;28;20515;-72
2021/05/31 01:06:35;;;;;;;1.20;1.00;;;9.90;98.00;;;;;;5048642;28;20492;-73
2021/05/31 01:09:07;;;;;;;1.20;1.00;;;9.80;98.00;;;;;;5051510;28;20561;-72
2021/05/31 01:11:45;;;;;;;1.40;1.10;;;9.80;98.00;;;;;;5049133;28;20461;-72
2021/05/31 01:14:19;;;;;;;1.70;1.37;;;9.80;98.00;;;;;;5051387;28;20476;-72
2021/05/31 01:16:49;;;;;;;1.30;1.10;;;9.80;98.00;;;;;;5048991;28;20453;-73
2021/05/31 01:19:32;;;;;;;1.20;1.00;;;9.80;98.00;;;;;;5051292;28;20944;-72
2021/05/31 01:22:05;;;;;;;1.20;1.00;;;9.70;98.00;;;;;;5048435;28;21232;-72
2021/05/31 01:24:52;;;;;;;1.20;1.00;;;9.60;98.00;;;;;;5051347;28;20484;-73
2021/05/31 01:27:33;;;;;;;1.23;1.10;;;9.30;98.00;;;;;;5051210;28;20489;-73
2021/05/31 01:30:07;;;;;;;1.20;1.10;;;9.30;98.00;;;;;;5048728;28;20502;-72
2021/05/31 01:32:37;;;;;;;1.20;1.00;;;9.30;98.00;;;;;;5051222;28;20497;-72
2021/05/31 01:35:06;;;;;;;1.40;1.20;;;9.50;98.00;;;;;;5048482;28;20462;-72
2021/05/31 01:37:35;;;;;;;1.20;1.00;;;9.40;98.00;;;;;;5051272;28;20492;-72
2021/05/31 01:40:05;;;;;;;1.70;1.10;;;9.40;98.00;;;;;;5048401;28;20473;-72
2021/05/31 01:42:32;;;;;;;1.60;1.07;;;9.30;98.00;;;;;;5051075;28;20931;-73
2021/05/31 01:44:59;;;;;;;1.77;1.03;;;9.30;98.00;;;;;;5048463;28;21177;-72
2021/05/31 01:47:29;;;;;;;1.30;1.03;;;9.20;98.00;;;;;;5051148;28;20457;-72
2021/05/31 01:49:56;;;;;;;1.20;1.00;;;9.10;98.00;;;;;;5047827;28;20490;-72
2021/05/31 01:52:24;;;;;;;1.20;1.10;;;9.10;98.00;;;;;;5050835;28;20514;-72
2021/05/31 01:54:53;;;;;;;1.53;1.10;;;9.10;98.00;;;;;;5048610;28;20454;-72
2021/05/31 01:57:21;;;;;;;1.30;1.30;;;9.00;98.00;;;;;;5051626;28;20464;-72
2021/05/31 01:59:48;;;;;;;1.20;1.00;;;9.10;98.00;;;;;;5051602;28;20928;-72
2021/05/31 02:02:15;;;;;;;1.20;1.00;;;8.80;98.00;;;;;;5054494;28;20489;-71
2021/05/31 02:04:43;;;;;;;1.30;1.10;;;8.90;98.00;;;;;;5053838;28;20473;-73
2021/05/31 02:07:10;;;;;;;1.40;1.07;;;8.90;98.00;;;;;;5053764;28;20490;-72
2021/05/31 02:09:36;;;;;;;2.13;1.50;;;9.00;98.00;;;;;;5054403;28;20457;-72
2021/05/31 02:12:08;;;;;;;1.70;1.13;;;8.80;98.00;;;;;;5051623;28;20489;-72
2021/05/31 02:14:43;;;;;;;1.20;1.00;;;8.80;98.00;;;;;;5054255;28;20460;-71
2021/05/31 02:17:16;;;;;;;1.40;1.10;;;8.70;98.00;;;;;;5053474;28;20465;-72
2021/05/31 02:19:52;;;;;;;1.20;1.00;;;8.60;98.00;;;;;;5053594;28;20458;-72
2021/05/31 02:22:19;;;;;;;1.67;1.20;;;8.60;98.00;;;;;;5054211;28;20457;-71
2021/05/31 02:24:52;;;;;;;1.20;1.00;;;8.40;98.00;;;;;;5052250;28;20897;-74
2021/05/31 02:27:20;;;;;;;1.50;1.10;;;8.50;98.00;;;;;;5053884;28;20464;-71
2021/05/31 02:29:47;;;;;;;1.20;1.10;;;8.40;98.00;;;;;;5052413;28;20868;-72
2021/05/31 02:32:14;;;;;;;1.20;1.10;;;8.40;98.00;;;;;;5053726;28;20460;-71
2021/05/31 02:34:41;;;;;;;1.20;1.00;;;8.30;98.00;;;;;;5053776;28;20493;-72
2021/05/31 02:37:12;;;;;;;1.50;1.27;;;8.40;98.00;;;;;;5051515;28;20963;-72
2021/05/31 02:39:38;;;;;;;1.20;1.03;;;8.30;98.00;;;;;;5053781;28;20462;-72
2021/05/31 02:42:06;;;;;;;1.20;1.10;;;8.50;98.00;;;;;;5051034;28;20457;-72
2021/05/31 02:44:33;;;;;;;1.20;1.00;;;8.30;98.00;;;;;;5053517;28;20465;-73
2021/05/31 02:47:00;;;;;;;1.20;1.00;;;8.40;98.00;;;;;;5051198;28;20983;-71
2021/05/31 02:49:26;;;;;;;1.20;1.00;;;8.30;98.00;;;;;;5052720;28;20454;-73
2021/05/31 02:52:01;;;;;;;1.20;1.00;;;8.30;98.00;;;;;;5051046;28;20468;-72
2021/05/31 02:54:30;;;;;;;1.20;1.00;;;8.20;98.00;;;;;;5053514;28;20458;-72
2021/05/31 02:56:57;;;;;;;1.20;1.00;;;8.30;98.00;;;;;;5050813;28;20456;-72
2021/05/31 02:59:23;;;;;;;1.20;1.07;;;8.30;98.00;;;;;;5053705;28;21021;-73
2021/05/31 03:01:50;;;;;;;1.20;0.90;;;8.20;98.00;;;;;;5051118;28;20496;-72
2021/05/31 03:04:16;;;;;;;1.20;1.00;;;8.00;98.00;;;;;;5053489;28;20869;-71
2021/05/31 03:06:43;;;;;;;1.50;1.30;;;8.10;98.00;;;;;;5050420;28;20491;-73
2021/05/31 03:09:09;;;;;;;1.20;1.00;;;8.00;98.00;;;;;;5053066;28;20486;-73
2021/05/31 03:11:37;;;;;;;1.20;1.00;;;8.00;98.00;;;;;;5050751;28;20518;-72
2021/05/31 03:14:04;;;;;;;1.33;1.20;;;8.00;98.00;;;;;;5051707;28;20469;-72
2021/05/31 03:16:31;;;;;;;1.20;1.00;;;8.00;98.00;;;;;;5050148;28;20458;-71
2021/05/31 03:18:57;;;;;;;1.50;1.20;;;7.90;98.00;;;;;;5052948;28;20491;-72
2021/05/31 03:21:24;;;;;;;1.20;1.00;;;8.10;98.00;;;;;;5050333;28;20516;-72
2021/05/31 03:23:50;;;;;;;1.20;1.00;;;8.10;98.00;;;;;;5052384;28;20515;-72
2021/05/31 03:26:18;;;;;;;1.30;1.10;;;8.00;98.00;;;;;;5050121;28;20551;-72
2021/05/31 03:28:46;;;;;;;1.20;1.00;;;7.90;98.00;;;;;;5051828;28;20511;-71
2021/05/31 03:31:12;;;;;;;1.20;1.07;;;8.00;98.00;;;;;;5050103;28;20542;-73
2021/05/31 03:33:39;;;;;;;1.20;1.00;;;7.90;98.00;;;;;;5052983;28;20488;-72
2021/05/31 03:36:05;;;;;;;1.20;1.00;;;7.90;98.00;;;;;;5050279;28;20457;-72
2021/05/31 03:38:32;;;;;;;1.20;1.00;;;7.90;98.00;;;;;;5052989;28;20471;-72
2021/05/31 03:40:58;;;;;;;1.20;1.00;;;7.90;98.00;;;;;;5050281;28;20481;-71
2021/05/31 03:43:24;;;;;;;1.20;1.00;;;7.90;98.00;;;;;;5052815;28;20801;-72
2021/05/31 03:45:52;;;;;;;1.20;1.03;;;7.90;98.00;;;;;;5050255;28;20516;-72
2021/05/31 03:48:19;;;;;;;1.80;1.40;;;8.10;98.00;;;;;;5052667;28;20452;-72
2021/05/31 03:50:46;;;;;;;1.20;1.00;;;8.20;98.00;;;;;;5049932;28;20471;-72
2021/05/31 03:53:12;;;;;;;1.20;1.00;;;8.30;98.00;;;;;;5052247;28;20453;-72
2021/05/31 03:55:38;;;;;;;1.20;1.00;;;8.10;98.00;;;;;;5049933;28;20540;-72
2021/05/31 03:58:05;;;;;;;1.20;1.00;;;7.90;98.00;;;;;;5051892;28;20496;-72
2021/05/31 04:00:32;;;;;;;1.20;1.00;;;7.70;98.00;;;;;;5048138;28;20959;-72
2021/05/31 04:03:00;;;;;;;1.20;1.10;;;7.70;98.00;;;;;;5052187;28;21028;-72
2021/05/31 04:05:31;;;;;;;1.20;1.10;;;7.80;98.00;;;;;;5049573;28;20542;-72
2021/05/31 04:13:22;;;;;;;1.87;1.20;;;7.70;98.00;;;;;;5029126;28;20475;-73
2021/05/31 04:15:49;;;;;;;1.20;1.00;;;7.70;98.00;;;;;;5049552;28;20498;-72
2021/05/31 04:18:17;;;;;;;1.20;1.00;;;7.70;98.00;;;;;;5052033;28;20872;-72
2021/05/31 04:20:43;;;;;;;1.30;1.17;;;7.90;98.00;;;;;;5048961;28;20464;-73
2021/05/31 04:23:10;;;;;;;1.20;1.00;;;7.90;98.00;;;;;;5052086;28;20849;-72
2021/05/31 04:25:37;;;;;;;2.90;1.50;;;8.00;98.00;;;;;;5049439;28;20543;-72
2021/05/31 04:28:04;;;;;;;1.20;1.10;;;8.10;98.00;;;;;;5050867;28;20535;-73
2021/05/31 04:30:30;;;;;;;16.83;1.73;;;8.30;98.00;;;;;;5049763;28;20481;-71
2021/05/31 04:32:57;;;;;;;1.67;1.10;;;8.40;98.00;;;;;;5052109;28;20490;-72
2021/05/31 04:35:25;;;;;;;1.20;1.10;;;8.30;98.00;;;;;;5049679;28;20978;-73
2021/05/31 04:37:56;;;;;;;1.20;1.00;;;8.20;98.00;;;;;;5051894;28;20485;-74
2021/05/31 04:40:22;;;;;;;1.20;1.00;;;8.10;98.00;;;;;;5049556;28;20515;-71
2021/05/31 04:42:48;;;;;;;1.30;1.10;;;8.10;98.00;;;;;;5052007;28;20493;-72
2021/05/31 04:45:15;;;;;;;2.57;1.53;;;8.10;98.00;;;;;;5049314;28;20488;-71
2021/05/31 04:47:42;;;;;;;1.27;1.10;;;8.00;98.00;;;;;;5051820;28;20842;-72
2021/05/31 04:50:09;;;;;;;1.40;1.10;;;8.10;98.00;;;;;;5048984;28;20445;-72
2021/05/31 04:52:37;;;;;;;1.20;1.00;;;8.10;98.00;;;;;;5051732;28;20455;-72
2021/05/31 04:55:05;;;;;;;1.20;1.00;;;8.10;98.00;;;;;;5049093;28;20967;-73
2021/05/31 04:57:31;;;;;;;1.20;1.00;;;8.20;98.00;;;;;;5050434;28;20522;-72
2021/05/31 04:59:58;;;;;;;1.20;1.00;;;8.30;98.00;;;;;;5051053;28;21004;-72
2021/05/31 05:02:25;;;;;;;1.20;1.00;;;8.30;98.00;;;;;;5050077;28;20544;-71
2021/05/31 05:04:51;;;;;;;1.20;1.00;;;8.30;98.00;;;;;;5051574;28;20500;-72
2021/05/31 05:07:20;;;;;;;2.33;1.10;;;8.40;98.00;;;;;;5048916;28;20488;-72
2021/05/31 05:09:48;;;;;;;1.20;1.00;;;8.50;98.00;;;;;;5051614;28;20461;-72
2021/05/31 05:12:15;;;;;;;1.20;1.00;;;8.60;98.00;;;;;;5048869;28;21058;-72
2021/05/31 05:14:43;;;;;;;1.20;1.00;;;8.70;98.00;;;;;;5051276;28;20453;-73
2021/05/31 05:17:09;;;;;;;1.20;1.00;;;8.70;98.00;;;;;;5048632;28;20464;-72
2021/05/31 05:19:36;;;;;;;1.63;1.20;;;8.80;98.00;;;;;;5051515;28;20543;-72
2021/05/31 05:22:03;;;;;;;1.20;1.00;;;9.00;98.00;;;;;;5049049;28;20861;-71
2021/05/31 05:24:29;;;;;;;1.20;1.10;;;9.30;98.00;;;;;;5051229;28;20458;-72
2021/05/31 05:26:57;;;;;;;1.20;1.10;;;9.50;98.00;;;;;;5048984;28;20589;-72
2021/05/31 05:29:24;;;;;;;1.20;1.10;;;9.60;98.00;;;;;;5050915;28;20457;-72
2021/05/31 05:31:51;;;;;;;1.67;1.30;;;9.80;98.00;;;;;;5048554;28;20460;-72
2021/05/31 05:34:19;;;;;;;1.20;1.00;;;9.90;98.00;;;;;;5055034;28;20958;-72
2021/05/31 05:36:50;;;;;;;1.20;1.00;;;10.20;98.00;;;;;;5052863;28;20464;-72
2021/05/31 05:39:30;;;;;;;2.23;1.10;;;10.30;98.00;;;;;;5055121;28;20463;-72
2021/05/31 05:47:44;;;;;;;1.20;0.90;;;10.90;98.00;;;;;;5055068;28;20447;-72
2021/05/31 05:50:13;;;;;;;1.77;1.10;;;11.10;98.00;;;;;;5052259;28;20499;-72
2021/05/31 05:52:40;;;;;;;2.27;1.33;;;11.10;98.00;;;;;;5054773;28;20475;-72
2021/05/31 05:55:07;;;;;;;1.60;1.20;;;11.20;98.00;;;;;;5053097;28;20526;-72
2021/05/31 05:57:37;;;;;;;1.20;1.00;;;11.20;98.00;;;;;;5054667;28;20453;-72
2021/05/31 06:00:07;;;;;;;1.20;1.00;;;11.40;98.00;;;;;;5054111;28;20503;-74
2021/05/31 06:02:33;;;;;;;1.20;1.10;;;11.50;98.00;;;;;;5054678;28;20473;-72
2021/05/31 06:05:00;;;;;;;1.20;1.10;;;11.70;98.00;;;;;;5054149;28;20993;-74
2021/05/31 06:07:27;;;;;;;1.40;1.17;;;11.70;98.00;;;;;;5051584;28;20508;-72
2021/05/31 06:09:54;;;;;;;1.40;1.40;;;11.80;98.00;;;;;;5054146;28;20461;-73
2021/05/31 06:12:21;;;;;;;2.10;1.20;;;11.90;98.00;;;;;;5051621;28;20464;-74
2021/05/31 06:14:49;;;;;;;1.40;1.20;;;12.10;98.00;;;;;;5052859;28;20481;-74
2021/05/31 06:17:16;;;;;;;1.20;1.10;;;12.20;98.00;;;;;;5051346;28;20494;-74
2021/05/31 06:19:42;;;;;;;2.37;1.63;;;12.30;97.90;;;;;;5054020;28;20457;-74
2021/05/31 06:22:09;;;;;;;1.90;1.50;;;12.40;98.00;;;;;;5051018;28;20454;-74
2021/05/31 06:24:35;;;;;;;1.50;1.20;;;12.50;98.00;;;;;;5053960;28;20447;-74
2021/05/31 06:27:02;;;;;;;1.20;1.00;;;12.50;97.90;;;;;;5051062;28;20551;-73
2021/05/31 06:29:29;;;;;;;1.23;1.07;;;12.60;98.00;;;;;;5053813;28;20507;-73
2021/05/31 06:31:57;;;;;;;1.20;1.17;;;12.70;98.00;;;;;;5051127;28;20452;-73
2021/05/31 06:34:23;;;;;;;1.73;1.33;;;12.70;98.00;;;;;;5053771;28;20455;-75
2021/05/31 06:36:54;;;;;;;1.63;1.30;;;12.80;98.00;;;;;;5050973;28;20505;-74
2021/05/31 06:39:21;;;;;;;1.50;1.20;;;12.90;96.70;;;;;;5053439;28;20489;-76
2021/05/31 06:41:48;;;;;;;3.33;1.47;;;13.00;96.00;;;;;;5051172;28;20508;-74
2021/05/31 06:44:14;;;;;;;3.83;1.73;;;13.10;96.10;;;;;;5053508;28;20462;-74
2021/05/31 06:46:41;;;;;;;1.30;1.10;;;13.30;95.90;;;;;;5050942;28;20571;-76
2021/05/31 06:49:09;;;;;;;1.60;1.30;;;13.50;95.80;;;;;;5053957;28;20466;-74
2021/05/31 06:51:36;;;;;;;1.20;1.00;;;13.60;95.30;;;;;;5050645;28;20469;-74
2021/05/31 06:54:03;;;;;;;1.80;1.30;;;13.90;93.40;;;;;;5052404;28;20510;-75
2021/05/31 06:56:29;;;;;;;1.77;1.40;;;14.00;92.00;;;;;;5050501;28;20462;-75
2021/05/31 06:58:56;;;;;;;1.20;1.00;;;14.20;89.60;;;;;;5053408;28;20459;-74
2021/05/31 07:01:22;;;;;;;1.30;1.30;;;14.40;90.20;;;;;;5050429;28;20461;-73
2021/05/31 07:03:49;;;;;;;1.20;1.10;;;14.50;90.10;;;;;;5053093;28;20549;-74
2021/05/31 07:06:17;;;;;;;1.20;1.17;;;14.70;90.00;;;;;;5050388;28;20479;-73
2021/05/31 07:08:43;;;;;;;1.40;1.20;;;14.80;87.50;;;;;;5051747;28;20496;-72
2021/05/31 07:11:12;;;;;;;1.20;1.00;;;14.90;89.10;;;;;;5048972;28;20457;-72
2021/05/31 07:13:39;;;;;;;1.50;1.20;;;15.00;88.50;;;;;;5051394;28;20501;-72
2021/05/31 07:16:08;;;;;;;1.20;1.10;;;15.30;87.40;;;;;;5050463;28;20556;-72
2021/05/31 07:18:34;;;;;;;1.80;1.20;;;15.30;85.60;;;;;;5052635;28;20851;-73
2021/05/31 07:21:02;;;;;;;1.20;1.00;;;15.40;84.50;;;;;;5049833;28;20468;-71
2021/05/31 07:23:32;;;;;;;1.20;1.00;;;15.60;86.10;;;;;;5051917;28;20514;-74
2021/05/31 07:25:59;;;;;;;1.20;1.03;;;15.80;82.80;;;;;;5049539;28;20513;-74
2021/05/31 07:28:25;;;;;;;3.73;1.90;;;15.80;82.60;;;;;;5052161;28;20507;-74
2021/05/31 07:30:53;;;;;;;1.30;1.10;;;16.00;82.20;;;;;;5049238;28;20454;-73
2021/05/31 07:33:20;;;;;;;1.20;1.00;;;16.10;80.30;;;;;;5051872;28;20527;-74
2021/05/31 07:35:46;;;;;;;2.33;1.50;;;16.10;81.10;;;;;;5049260;28;20458;-74
2021/05/31 07:38:14;;;;;;;1.77;1.00;;;16.20;80.00;;;;;;5052096;28;20457;-74
2021/05/31 07:40:42;;;;;;;1.93;1.20;;;16.40;78.90;;;;;;5050836;28;20503;-74
2021/05/31 07:43:08;;;;;;;1.20;0.97;;;16.50;76.30;;;;;;5052222;28;20462;-74
2021/05/31 07:45:35;;;;;;;1.30;1.10;;;16.50;77.30;;;;;;5048871;28;21010;-73
2021/05/31 07:48:01;;;;;;;1.20;1.10;;;16.70;76.70;;;;;;5051822;28;20477;-73
2021/05/31 07:50:28;;;;;;;1.20;1.10;;;16.80;76.70;;;;;;5049061;28;20473;-74
2021/05/31 07:52:54;;;;;;;1.20;1.00;;;16.80;77.30;;;;;;5052862;28;20523;-73
2021/05/31 07:55:21;;;;;;;1.20;1.00;;;16.90;76.50;;;;;;5049093;28;21019;-73
2021/05/31 07:57:51;;;;;;;1.20;1.00;;;17.00;77.00;;;;;;5052220;28;20960;-73
2021/05/31 08:00:19;;;;;;;1.20;1.07;;;16.90;75.70;;;;;;5051189;28;20454;-73
2021/05/31 08:02:47;;;;;;;1.20;1.10;;;17.00;77.20;;;;;;5051299;28;20461;-74
2021/05/31 08:05:15;;;;;;;1.20;1.10;;;17.10;75.30;;;;;;5050978;28;20486;-74
2021/05/31 08:07:42;;;;;;;1.20;1.00;;;17.20;74.90;;;;;;5049836;28;20445;-69
2021/05/31 08:10:12;;;;;;;1.60;1.33;;;17.30;73.90;;;;;;5050684;28;20460;-73
2021/05/31 08:12:38;;;;;;;1.20;1.00;;;17.30;71.40;;;;;;5031142;28;20972;-74
2021/05/31 08:15:10;;;;;;;1.30;1.10;;;17.40;70.80;;;;;;5050983;28;20454;-73
2021/05/31 08:17:37;;;;;;;1.20;1.00;;;17.50;71.80;;;;;;5048825;28;20469;-74
2021/05/31 08:20:07;;;;;;;1.20;1.00;;;17.50;71.90;;;;;;5050574;28;20457;-74
2021/05/31 08:22:33;;;;;;;1.20;1.10;;;17.50;74.00;;;;;;5047422;28;20495;-74
2021/05/31 08:25:00;;;;;;;1.50;1.33;;;17.60;73.10;;;;;;5050631;28;20493;-74
2021/05/31 08:27:26;;;;;;;1.30;1.10;;;17.70;72.50;;;;;;5048911;28;21029;-74
2021/05/31 08:29:54;;;;;;;1.80;1.40;;;17.70;71.20;;;;;;5050679;28;20807;-74
2021/05/31 08:32:22;;;;;;;1.77;1.27;;;17.80;71.50;;;;;;5048396;28;20504;-76
2021/05/31 08:34:48;;;;;;;1.30;1.10;;;17.90;71.10;;;;;;5050460;28;20626;-74
2021/05/31 08:37:15;;;;;;;1.57;1.30;;;17.90;71.50;;;;;;5048844;28;20543;-75
2021/05/31 08:39:42;;;;;;;1.30;1.10;;;17.90;71.20;;;;;;5050072;28;20457;-75
2021/05/31 08:42:09;;;;;;;1.20;1.10;;;18.00;72.10;;;;;;5048306;28;20491;-75
2021/05/31 08:44:35;;;;;;;1.40;1.20;;;18.10;72.40;;;;;;5050309;28;20454;-74
2021/05/31 08:47:03;;;;;;;1.90;1.43;;;18.30;72.00;;;;;;5048277;28;21010;-74
2021/05/31 08:49:31;;;;;;;1.20;1.10;;;18.30;71.50;;;;;;5049978;28;20460;-74
2021/05/31 08:51:58;;;;;;;1.30;1.10;;;18.50;70.40;;;;;;5048264;28;20493;-74
2021/05/31 08:54:25;;;;;;;2.17;1.47;;;18.60;70.10;;;;;;5050072;28;20461;-74
2021/05/31 08:56:51;;;;;;;1.20;1.10;;;18.60;70.10;;;;;;5048237;28;20552;-74
2021/05/31 08:59:18;;;;;;;1.20;1.10;;;18.70;71.40;;;;;;5049757;28;20535;-74
2021/05/31 09:01:45;;;;;;;1.20;1.00;;;18.60;69.30;;;;;;5048527;28;21107;-74
2021/05/31 09:04:14;;;;;;;1.20;1.00;;;18.80;70.50;;;;;;5050915;28;20490;-74
2021/05/31 09:06:52;;;;;;;1.30;1.10;;;18.80;70.70;;;;;;5049652;28;21133;-74
2021/05/31 09:09:20;;;;;;;1.70;1.20;;;19.10;69.90;;;;;;5054614;28;20619;-74
2021/05/31 09:11:54;;;;;;;1.40;1.17;;;19.30;70.70;;;;;;5052456;28;21031;-74
2021/05/31 09:14:21;;;;;;;1.40;1.10;;;19.30;67.90;;;;;;5054696;28;20551;-74
2021/05/31 09:16:50;;;;;;;1.30;1.10;;;19.30;69.60;;;;;;5052645;28;20464;-74
2021/05/31 09:19:17;;;;;;;1.20;1.00;;;19.40;70.40;;;;;;5053166;28;20457;-74
2021/05/31 09:21:45;;;;;;;1.50;1.30;;;19.50;68.60;;;;;;5051859;28;20465;-74
2021/05/31 09:24:18;;;;;;;1.23;1.20;;;19.60;68.00;;;;;;5054476;28;20470;-74
2021/05/31 09:26:46;;;;;;;1.20;1.10;;;19.50;67.20;;;;;;5051760;28;21056;-75
2021/05/31 09:29:13;;;;;;;1.23;1.10;;;19.50;67.80;;;;;;5054231;28;20464;-72
2021/05/31 09:31:40;;;;;;;1.30;1.10;;;19.50;69.10;;;;;;5051943;28;20465;-76
2021/05/31 09:34:08;;;;;;;1.57;1.33;;;19.60;68.20;;;;;;5053417;28;20461;-74
2021/05/31 09:36:46;;;;;;;1.67;1.50;;;19.70;68.70;;;;;;5050913;28;20449;-74
2021/05/31 09:39:14;;;;;;;2.00;1.50;;;19.80;66.70;;;;;;5054686;28;20490;-73
2021/05/31 09:41:41;;;;;;;1.40;1.20;;;19.90;68.10;;;;;;5051807;28;20453;-74
2021/05/31 09:44:09;;;;;;;1.47;1.40;;;20.10;67.20;;;;;;5054909;28;20496;-74
2021/05/31 09:46:38;;;;;;;1.30;1.10;;;20.00;67.10;;;;;;5051312;28;21033;-74
2021/05/31 09:49:16;;;;;;;1.40;1.20;;;20.20;67.20;;;;;;5054852;28;20500;-74
2021/05/31 09:51:51;;;;;;;1.73;1.47;;;20.30;66.00;;;;;;5051943;28;20458;-74
2021/05/31 09:54:32;;;;;;;1.20;1.03;;;20.40;67.20;;;;;;5054760;28;20458;-73
2021/05/31 09:57:00;;;;;;;1.20;1.10;;;20.60;67.20;;;;;;5051705;28;20940;-74
2021/05/31 09:59:28;;;;;;;1.60;1.43;;;20.70;67.70;;;;;;5054678;28;20457;-74
2021/05/31 10:01:58;;;;;;;1.70;1.40;;;20.80;66.20;;;;;;5052235;28;20488;-74
2021/05/31 10:04:32;;;;;;;1.20;1.10;;;20.90;63.00;;;;;;5054510;28;20468;-74
2021/05/31 10:07:11;;;;;;;1.50;1.40;;;20.80;64.90;;;;;;5051976;28;20484;-74
2021/05/31 10:09:41;;;;;;;2.00;1.17;;;20.90;65.40;;;;;;5054499;28;20472;-75
2021/05/31 10:12:10;;;;;;;1.20;1.10;;;21.00;65.30;;;;;;5051920;28;20499;-74
2021/05/31 10:14:38;;;;;;;1.60;1.20;;;21.10;64.30;;;;;;5054397;28;20472;-74
2021/05/31 10:17:06;;;;;;;1.20;1.10;;;21.20;64.30;;;;;;5050752;28;20454;-74
2021/05/31 10:19:41;;;;;;;1.20;1.10;;;21.20;63.40;;;;;;5053319;28;20526;-74
2021/05/31 10:22:08;;;;;;;1.23;1.10;;;21.40;64.70;;;;;;5051634;28;20453;-74
2021/05/31 10:24:35;;;;;;;1.40;1.20;;;21.50;64.40;;;;;;5053906;28;20558;-73
2021/05/31 10:27:04;;;;;;;2.13;1.77;;;21.50;66.40;;;;;;5051241;28;20563;-75
2021/05/31 10:29:31;;;;;;;1.90;1.50;;;21.50;64.90;;;;;;5053880;28;21096;-75
2021/05/31 10:32:09;;;;;;;2.27;1.27;;;21.70;65.40;;;;;;5050200;28;20583;-74
2021/05/31 10:34:48;;;;;;;2.00;1.43;;;21.80;64.10;;;;;;5053807;28;20460;-74
2021/05/31 10:37:19;;;;;;;1.60;1.33;;;21.90;63.20;;;;;;5050359;28;20461;-74
2021/05/31 10:40:01;;;;;;;1.40;1.30;;;21.80;63.90;;;;;;5053847;28;20457;-74
2021/05/31 10:42:44;;;;;;;1.43;1.27;;;21.80;63.20;;;;;;5050896;28;20464;-74
2021/05/31 10:45:27;;;;;;;1.20;1.10;;;21.90;64.30;;;;;;5053871;28;20749;-75
2021/05/31 10:48:06;;;;;;;1.33;1.17;;;22.10;63.70;;;;;;5051678;28;20526;-74
2021/05/31 10:50:38;;;;;;;1.87;1.40;;;22.30;62.00;;;;;;5053013;28;20474;-75
2021/05/31 10:53:09;;;;;;;1.20;1.10;;;22.30;62.10;;;;;;5053483;28;20454;-74
2021/05/31 10:55:50;;;;;;;1.77;1.33;;;22.30;63.30;;;;;;5052618;28;20465;-75
2021/05/31 10:58:20;;;;;;;1.20;1.20;;;22.60;62.90;;;;;;5053599;28;20524;-74
2021/05/31 11:00:53;;;;;;;1.43;1.10;;;22.60;59.90;;;;;;5050707;28;20986;-75
2021/05/31 11:03:20;;;;;;;1.40;1.20;;;22.90;62.40;;;;;;5053451;28;20461;-75
2021/05/31 11:05:47;;;;;;;1.30;1.20;;;22.90;62.90;;;;;;5050995;28;20857;-74
2021/05/31 11:08:28;;;;;;;4.60;1.43;;;23.10;59.70;;;;;;5053399;28;20492;-76
2021/05/31 11:11:00;;;;;;;1.20;1.10;;;22.80;61.70;;;;;;5050663;28;20493;-74
2021/05/31 11:13:29;;;;;;;1.50;1.20;;;23.00;60.10;;;;;;5053094;28;20955;-77
2021/05/31 11:16:05;;;;;;;1.67;1.33;;;22.80;59.40;;;;;;5049299;28;20463;-75
2021/05/31 11:18:40;;;;;;;1.30;1.30;;;23.00;59.90;;;;;;5052975;28;20453;-74
2021/05/31 11:21:07;;;;;;;1.83;1.30;;;23.10;62.30;;;;;;5050341;28;20975;-75
2021/05/31 11:23:34;;;;;;;1.30;1.20;;;23.20;60.80;;;;;;5053069;28;20515;-75
2021/05/31 11:26:02;;;;;;;1.73;1.40;;;23.20;59.10;;;;;;5050359;28;21042;-76
2021/05/31 11:28:29;;;;;;;2.23;1.40;;;23.30;61.30;;;;;;5052846;28;20553;-75
2021/05/31 11:30:56;;;;;;;1.40;1.40;;;23.40;61.30;;;;;;5048959;28;20957;-74
2021/05/31 11:33:23;;;;;;;2.13;1.40;;;23.80;61.40;;;;;;5053146;28;20466;-75
2021/05/31 11:35:50;;;;;;;1.30;1.20;;;23.90;60.10;;;;;;5050568;28;20457;-75
2021/05/31 11:38:19;;;;;;;1.60;1.33;;;24.20;60.30;;;;;;5052947;28;20519;-75
2021/05/31 11:40:46;;;;;;;1.40;1.20;;;24.40;58.50;;;;;;5050507;28;20461;-74
2021/05/31 11:43:14;;;;;;;1.30;1.20;;;24.60;60.00;;;;;;5052937;28;20568;-74
2021/05/31 11:45:45;;;;;;;1.63;1.30;;;24.50;57.70;;;;;;5051621;28;20952;-75
2021/05/31 11:48:13;;;;;;;1.20;1.10;;;24.40;58.90;;;;;;5052664;28;20540;-76
2021/05/31 11:50:41;;;;;;;4.07;1.90;;;24.50;59.60;;;;;;5051351;28;20864;-75
2021/05/31 11:53:11;;;;;;;1.30;1.20;;;24.60;58.70;;;;;;5051283;28;20454;-75
2021/05/31 11:55:39;;;;;;;1.30;1.20;;;24.90;58.50;;;;;;5052394;28;20969;-76
2021/05/31 11:58:06;;;;;;;1.53;1.23;;;24.90;58.70;;;;;;5049994;28;20481;-75
2021/05/31 12:00:34;;;;;;;1.30;1.30;;;25.30;58.50;;;;;;5052398;28;20458;-75
2021/05/31 12:03:02;;;;;;;2.40;1.30;;;25.40;56.40;;;;;;5049875;28;20461;-75
2021/05/31 12:05:33;;;;;;;1.50;1.30;;;25.70;58.40;;;;;;5051942;28;20450;-75
2021/05/31 12:08:09;;;;;;;1.30;1.20;;;25.70;58.80;;;;;;5049785;28;20517;-75
2021/05/31 12:10:36;;;;;;;1.50;1.47;;;25.70;57.70;;;;;;5052258;28;20453;-76
2021/05/31 12:13:03;;;;;;;1.80;1.30;;;25.90;58.70;;;;;;5049533;28;20449;-74
2021/05/31 12:15:29;;;;;;;1.43;1.30;;;25.70;57.30;;;;;;5051940;28;20457;-75
2021/05/31 12:17:56;;;;;;;3.70;1.73;;;25.90;58.50;;;;;;5049015;28;20956;-75
2021/05/31 12:20:26;;;;;;;1.30;1.20;;;25.80;54.30;;;;;;5051806;28;20947;-75
2021/05/31 12:22:53;;;;;;;1.97;1.30;;;25.90;55.00;;;;;;5049654;28;20460;-76
2021/05/31 12:25:21;;;;;;;1.50;1.23;;;26.00;56.90;;;;;;5051968;28;20501;-75
2021/05/31 12:27:50;;;;;;;3.03;1.50;;;26.00;55.80;;;;;;5048955;28;20490;-74
2021/05/31 12:30:17;;;;;;;1.30;1.30;;;26.00;57.30;;;;;;5051051;28;20492;-76
2021/05/31 12:32:44;;;;;;;1.40;1.30;;;26.00;56.00;;;;;;5049005;28;20462;-75
2021/05/31 12:35:12;;;;;;;1.40;1.30;;;26.30;57.90;;;;;;5050932;28;20500;-75
2021/05/31 12:37:42;;;;;;;1.93;1.23;;;26.00;57.90;;;;;;5049063;28;20824;-75
2021/05/31 12:40:11;;;;;;;2.47;1.73;;;26.00;58.50;;;;;;5050844;28;20507;-75
2021/05/31 12:42:38;;;;;;;2.10;1.30;;;26.20;59.20;;;;;;5048336;28;20457;-75
2021/05/31 12:45:07;;;;;;;1.40;1.20;;;26.20;56.50;;;;;;5050649;28;20498;-75
2021/05/31 12:47:38;;;;;;;1.90;1.30;;;26.30;56.40;;;;;;5048780;28;20520;-75
2021/05/31 12:50:07;;;;;;;1.93;1.40;;;26.40;55.30;;;;;;5050534;28;20458;-75
2021/05/31 12:52:38;;;;;;;1.50;1.20;;;26.30;57.80;;;;;;5047683;28;20457;-75
2021/05/31 12:55:08;;;;;;;1.90;1.60;;;26.20;56.10;;;;;;5050621;28;21560;-75
2021/05/31 12:57:37;;;;;;;2.30;1.30;;;26.50;57.70;;;;;;5048608;28;20515;-76
2021/05/31 13:00:08;;;;;;;1.57;1.33;;;26.60;57.30;;;;;;5050492;28;20488;-76
2021/05/31 13:02:40;;;;;;;1.30;1.20;;;26.40;53.60;;;;;;5048177;28;20489;-75
2021/05/31 13:05:13;;;;;;;1.67;1.40;;;26.60;54.60;;;;;;5050611;28;20511;-75
2021/05/31 13:07:45;;;;;;;1.30;1.20;;;26.70;55.00;;;;;;5048534;28;20485;-75